AirNav   Free Bose SoundSport
 
 617 users online  

6N7 New York Skyports Inc Seaplane Base
New York, New York, USA

GOING TO NEW YORK?


FAA INFORMATION EFFECTIVE 28 MARCH 2019

Location

FAA Identifier: 6N7
Lat/Long: 40-44-02.3670N / 073-58-22.4990W
40-44.039450N / 073-58.374983W
40.7339908 / -73.9729164
(estimated)
Elevation: 0 ft. / 0 m (estimated)
Variation: 13W (1985)
Time zone: UTC -4 (UTC -5 during Standard Time)
Zip code: 10199

Seaplane Base Operations

Seaplane Base use: Open to the public
Activation date: 12/1946
Control tower: no
ARTCC: NEW YORK CENTER
FSS: NEW YORK FLIGHT SERVICE STATION
NOTAMs facility: ISP (NOTAM-D service available)
Attendance: 0800-DUSK
Wind indicator: yes
Segmented circle: no
Landing fee: yes

Seaplane Base Communications

CTAF: 122.9
WX AWOS-3PT at JRB (2.6 nm SW): 128.175 (212-425-1534)
WX ASOS at LGA (5 nm NE): PHONE 718-672-6317
WX ASOS at TEB (8 nm NW): 132.025 (201-393-0855)
WX ASOS at EWR (9 nm W): PHONE 973-621-2892
WX ASOS at JFK (10 nm SE): PHONE 718-656-0956
WX AWOS-3 at LDJ (14 nm SW): 124.025 (908-862-7383)
WX ASOS at CDW (16 nm NW): 135.5 (973-575-4417)

Nearby radio navigation aids

VOR radial/distance  VOR name  Freq  Var
LGAr250/5.6LA GUARDIA VOR/DME113.1012W
TEBr160/8.0TETERBORO VOR/DME108.4011W
CRIr345/8.1CANARSIE VOR/DME112.3011W
JFKr315/11.0KENNEDY VOR/DME115.9012W
COLr030/26.7COLTS NECK VOR/DME115.4011W
DPKr275/30.6DEER PARK VOR/DME117.7012W
SAXr139/32.5SPARTA VORTAC115.7011W
SBJr085/36.1SOLBERG VOR/DME112.9010W
CMKr220/37.3CARMEL VOR/DME116.6012W
BWZr107/38.8BROADWAY VOR/DME114.2011W
RBVr047/39.8ROBBINSVILLE VORTAC113.8010W

 
NDB name  Hdg/Dist  Freq  Var  ID
TORBY132/8.421412WTE - .
CHATHAM104/20.825413WCAT -.-. .- -
BABYLON292/27.027514WBBN -... -... -.

Seaplane Base Services

Runway Information

Runway N/S

Dimensions: 10000 x 1000 ft. / 3048 x 305 m
Surface: water
RUNWAY N  RUNWAY S
Traffic pattern: leftleft

Seaplane Base Ownership and Management from official FAA records

Ownership: Publicly-owned
Owner: NEW YORK CITY - ECONOMIC DEV CORP
2430 FDR DRIVE - EAST SERVICE RD
NEW YORK, NY 10010
Phone (212) 481-4806
Manager: JERRELL OBEE
2430 FDR DRIVE - EAST SERVICE RD
NEW YORK, NY 10010
Phone (347) 522-8049

Seaplane Base Operational Statistics

Aircraft operations: avg 34/week *
100% air taxi
* for 12-month period ending 08 September 2015

Additional Remarks

E RIVER-VELOCITY 2.6MPH IN SSW DRCTN. HVY BOAT TFC IN RIVER.
PILOTS REQUIRED TO TAXI 1000' OFF-SHORE ON MANHATAN SIDE BEFORE BEGINNING TAKEOFF.
PILOTS REQUIRED NOT TO FLY OVER THE 59TH STREET BRIDGE.
3 BLADED PROPS REQ'D ON ALL SEAPLANES.
PILOTS MUST COMPLETE A PROVING FLIGHT W/AN AUTHORIZED MEMBER OF THE N.E. SEAPLANES PILOT'S ASSOC. PRIOR TO SPB USE
NO TIE-DOWNS AND NO OVERNIGHT STAYS AVBL.
FOR CD CTC NEW YORK APCH AT 800-645-3206.

Instrument Procedures

There are no published instrument procedures at 6N7.

Some nearby airports with instrument procedures:

6N5 - East 34th Street Heliport (1 nm N)
KJRA - West 30th St Heliport (2 nm NW)
KJRB - Downtown Manhattan/Wall Street Heliport (3 nm SW)
KLGA - LaGuardia Airport (5 nm NE)
KTEB - Teterboro Airport (8 nm NW)
KEWR - Newark Liberty International Airport (9 nm W)
KJFK - John F Kennedy International Airport (10 nm SE)
KLDJ - Linden Airport (14 nm SW)
KCDW - Essex County Airport (16 nm NW)
 
Loc | Ops | Rwys | IFR | FBO | Links
Com | Nav | Svcs | Stats | Notes
Area around 6N7 (New York Skyports Inc Seaplane Base)
 
Road maps at: MapQuest Bing Google
 
Aerial photo
WARNING: Photo may not be current or correct
Aerial photo of 6N7 (New York Skyports Inc Seaplane Base)
Photo by Dave Lu
Photo taken 28-Jun-2013
looking north.

Do you have a better or more recent aerial photo of New York Skyports Inc Seaplane Base that you would like to share? If so, please send us your photo.

 
Sectional chart

 
Airport distance calculator
Flying to New York Skyports Inc Seaplane Base? Find the distance to fly.

From to 6N7

Sunrise and sunset
Times for 19-Apr-2019
 Local
(UTC-4)
 Zulu
(UTC)
Morning civil twilight05:4309:43
Sunrise06:1210:12
Sunset19:3823:38
Evening civil twilight20:0700:07

Current date and time
Zulu (UTC)  19-Apr-2019 11:32:45
Local (UTC-4)  19-Apr-2019 07:32:45
 
METAR
KJRB 
3nm SW 
191124Z AUTO 25007KT 10SM BKN029 17/14 A2983 RMK AO2
KNYC 
3nm N 
191110Z AUTO VRB03KT 10SM FEW020 BKN025 16/13 A2984 RMK AO2 T01610128 $
KLGA 
5nm NE 
191051Z 19007KT 10SM FEW025 FEW140 BKN200 13/12 A2982 RMK AO2 SLP096 T01330117
KTEB 
9nm NW 
191120Z 17010G17KT 10SM BKN026 17/14 A2979 RMK AO2 T01720139
KEWR 
9nm W 
191119Z 18010KT 10SM SCT025 BKN130 BKN220 18/14 A2980 RMK AO2 SCT V BKN T01780144
KJFK 
11nm SE 
191051Z 17015KT 7SM FEW007 FEW042 SCT130 BKN220 BKN300 12/12 A2983 RMK AO2 SLP102 T01220122
KLDJ 
14nm SW 
191115Z AUTO 19007KT 10SM SCT028 18/14 A2981 RMK AO2 T01770140
KCDW 
17nm NW 
191105Z VRB04KT 10SM BKN026 18/15 A2980 RMK AO2 T01780150
TAF
KLGA 
5nm NE 
190834Z 1909/2012 19014KT P6SM SCT030 SCT150 WS020/21050KT FM191300 20015G21KT P6SM OVC012 TEMPO 1914/1918 -SHRA FM191800 17018G24KT 4SM BR OVC010 WS020/20050KT PROB30 1918/1924 -SHRA OVC008 FM200000 18020G28KT 3SM -SHRA BR OVC010 WS020/19055KT FM200400 18018G26KT 2SM +SHRA BR OVC010 WS020/19055KT
KTEB 
9nm NW 
190834Z 1909/2012 20009KT P6SM SCT030 SCT150 FM191300 20013G19KT P6SM OVC012 TEMPO 1914/1918 -SHRA FM191800 19014G20KT 4SM BR OVC010 WS020/20045KT PROB30 1918/1924 -SHRA OVC008 FM200000 18017G24KT 3SM -SHRA BR OVC010 WS020/19055KT FM200400 18017G26KT 2SM +SHRA BR OVC010 WS020/19055KT
KEWR 
9nm W 
190834Z 1909/2012 20010KT P6SM SCT030 SCT150 FM191300 20014G20KT P6SM OVC012 TEMPO 1914/1918 -SHRA FM191800 19015G21KT 4SM BR OVC010 WS020/20045KT PROB30 1918/1924 -SHRA OVC008 FM200000 18013G22KT 3SM -SHRA BR OVC010 WS020/19055KT FM200400 18013G22KT 2SM +SHRA BR OVC010 WS020/19055KT
KJFK 
11nm SE 
190834Z 1909/2012 19018G24KT P6SM SCT030 SCT150 WS020/21055KT FM191300 19018G24KT P6SM OVC012 TEMPO 1914/1918 -SHRA FM191800 18021G27KT 4SM BR OVC010 WS020/20050KT PROB30 1918/1924 -SHRA OVC008 FM200000 18024G32KT 3SM -SHRA BR OVC010 WS020/19055KT FM200400 18020G28KT 2SM +SHRA BR OVC010 WS020/19055KT
NOTAMs
Click for the latest NOTAMs
NOTAMs are issued by the DoD/FAA and will open in a separate window not controlled by AirNav.

 

 
 

Would you like to see your business listed on this page?

 If your business provides an interesting product or service to pilots, flight crews, aircraft, or users of the New York Skyports Inc Seaplane Base, you should consider listing it here.  To start the listing process, click on the button below
 
Add a business
 

Other Pages about New York Skyports Inc Seaplane Base

Update a link
 
Copyright © AirNav, LLC. All rights reserved. Privacy Policy  Contact